sensor_id;sensor_type;location;lat;lon;timestamp;P1;durP1;ratioP1;P2;durP2;ratioP2
67757;SDS011;54562;47.620;18.786;2023-02-18T00:03:04;7.10;;;3.50;;
67757;SDS011;54562;47.620;18.786;2023-02-18T00:06:15;5.10;;;2.20;;
67757;SDS011;54562;47.620;18.786;2023-02-18T00:09:25;7.90;;;3.20;;
67757;SDS011;54562;47.620;18.786;2023-02-18T00:12:33;6.00;;;2.80;;
67757;SDS011;54562;47.620;18.786;2023-02-18T00:15:42;6.70;;;2.80;;
67757;SDS011;54562;47.620;18.786;2023-02-18T00:18:51;5.70;;;2.50;;
67757;SDS011;54562;47.620;18.786;2023-02-18T00:22:02;6.90;;;2.80;;
67757;SDS011;54562;47.620;18.786;2023-02-18T00:25:11;6.40;;;2.90;;
67757;SDS011;54562;47.620;18.786;2023-02-18T00:28:20;6.10;;;3.00;;
67757;SDS011;54562;47.620;18.786;2023-02-18T00:31:29;5.90;;;2.30;;
67757;SDS011;54562;47.620;18.786;2023-02-18T00:34:39;5.40;;;2.40;;
67757;SDS011;54562;47.620;18.786;2023-02-18T00:37:48;5.90;;;2.50;;
67757;SDS011;54562;47.620;18.786;2023-02-18T00:44:06;5.20;;;2.20;;
67757;SDS011;54562;47.620;18.786;2023-02-18T00:47:15;4.90;;;2.20;;
67757;SDS011;54562;47.620;18.786;2023-02-18T00:53:27;7.10;;;2.10;;
67757;SDS011;54562;47.620;18.786;2023-02-18T00:56:37;5.10;;;2.10;;
67757;SDS011;54562;47.620;18.786;2023-02-18T00:59:45;5.30;;;2.00;;
67757;SDS011;54562;47.620;18.786;2023-02-18T01:02:53;4.80;;;2.00;;
67757;SDS011;54562;47.620;18.786;2023-02-18T01:06:02;4.70;;;2.10;;
67757;SDS011;54562;47.620;18.786;2023-02-18T01:09:12;4.30;;;1.90;;
67757;SDS011;54562;47.620;18.786;2023-02-18T01:12:20;5.10;;;1.80;;
67757;SDS011;54562;47.620;18.786;2023-02-18T01:15:28;6.00;;;2.00;;
67757;SDS011;54562;47.620;18.786;2023-02-18T01:18:38;3.20;;;1.60;;
67757;SDS011;54562;47.620;18.786;2023-02-18T01:21:47;3.50;;;1.60;;
67757;SDS011;54562;47.620;18.786;2023-02-18T01:24:55;4.60;;;1.80;;
67757;SDS011;54562;47.620;18.786;2023-02-18T01:28:03;3.80;;;1.60;;
67757;SDS011;54562;47.620;18.786;2023-02-18T01:31:13;2.90;;;1.40;;
67757;SDS011;54562;47.620;18.786;2023-02-18T01:34:21;3.70;;;1.90;;
67757;SDS011;54562;47.620;18.786;2023-02-18T01:37:30;4.00;;;1.60;;
67757;SDS011;54562;47.620;18.786;2023-02-18T01:40:46;5.40;;;1.80;;
67757;SDS011;54562;47.620;18.786;2023-02-18T01:44:13;3.20;;;1.50;;
67757;SDS011;54562;47.620;18.786;2023-02-18T01:47:26;3.70;;;1.70;;
67757;SDS011;54562;47.620;18.786;2023-02-18T01:50:36;3.70;;;1.50;;
67757;SDS011;54562;47.620;18.786;2023-02-18T01:53:54;4.50;;;1.70;;
67757;SDS011;54562;47.620;18.786;2023-02-18T01:57:08;3.30;;;1.60;;
67757;SDS011;54562;47.620;18.786;2023-02-18T02:00:19;4.20;;;1.50;;
67757;SDS011;54562;47.620;18.786;2023-02-18T02:06:35;5.20;;;1.90;;
67757;SDS011;54562;47.620;18.786;2023-02-18T02:09:43;4.70;;;1.60;;
67757;SDS011;54562;47.620;18.786;2023-02-18T02:16:11;3.50;;;1.90;;
67757;SDS011;54562;47.620;18.786;2023-02-18T02:19:49;3.80;;;1.60;;
67757;SDS011;54562;47.620;18.786;2023-02-18T02:23:46;4.20;;;1.80;;
67757;SDS011;54562;47.620;18.786;2023-02-18T02:27:24;4.70;;;1.80;;
67757;SDS011;54562;47.620;18.786;2023-02-18T02:30:50;4.60;;;1.80;;
67757;SDS011;54562;47.620;18.786;2023-02-18T02:34:32;3.30;;;1.50;;
67757;SDS011;54562;47.620;18.786;2023-02-18T02:37:51;4.10;;;1.80;;
67757;SDS011;54562;47.620;18.786;2023-02-18T02:41:13;4.70;;;1.70;;
67757;SDS011;54562;47.620;18.786;2023-02-18T02:44:33;3.60;;;1.70;;
67757;SDS011;54562;47.620;18.786;2023-02-18T02:47:57;3.10;;;1.50;;
67757;SDS011;54562;47.620;18.786;2023-02-18T02:51:14;3.30;;;1.60;;
67757;SDS011;54562;47.620;18.786;2023-02-18T02:54:26;4.70;;;1.80;;
67757;SDS011;54562;47.620;18.786;2023-02-18T02:57:49;4.60;;;1.70;;
67757;SDS011;54562;47.620;18.786;2023-02-18T03:01:12;4.00;;;1.70;;
67757;SDS011;54562;47.620;18.786;2023-02-18T03:04:53;4.10;;;1.60;;
67757;SDS011;54562;47.620;18.786;2023-02-18T03:08:28;4.00;;;1.70;;
67757;SDS011;54562;47.620;18.786;2023-02-18T03:11:51;3.80;;;1.90;;
67757;SDS011;54562;47.620;18.786;2023-02-18T03:15:10;4.40;;;1.60;;
67757;SDS011;54562;47.620;18.786;2023-02-18T03:18:28;4.20;;;1.70;;
67757;SDS011;54562;47.620;18.786;2023-02-18T03:21:44;3.80;;;1.70;;
67757;SDS011;54562;47.620;18.786;2023-02-18T03:24:58;3.40;;;1.60;;
67757;SDS011;54562;47.620;18.786;2023-02-18T03:28:12;3.70;;;1.70;;
67757;SDS011;54562;47.620;18.786;2023-02-18T03:31:26;3.80;;;1.60;;
67757;SDS011;54562;47.620;18.786;2023-02-18T03:34:42;3.00;;;1.40;;
67757;SDS011;54562;47.620;18.786;2023-02-18T03:37:56;4.30;;;1.70;;
67757;SDS011;54562;47.620;18.786;2023-02-18T03:41:14;2.90;;;1.50;;
67757;SDS011;54562;47.620;18.786;2023-02-18T03:44:24;5.00;;;1.60;;
67757;SDS011;54562;47.620;18.786;2023-02-18T03:47:33;3.50;;;1.50;;
67757;SDS011;54562;47.620;18.786;2023-02-18T03:50:41;4.40;;;1.70;;
67757;SDS011;54562;47.620;18.786;2023-02-18T03:53:49;4.80;;;1.60;;
67757;SDS011;54562;47.620;18.786;2023-02-18T03:56:57;3.00;;;1.40;;
67757;SDS011;54562;47.620;18.786;2023-02-18T04:00:07;3.30;;;1.60;;
67757;SDS011;54562;47.620;18.786;2023-02-18T04:03:17;3.40;;;1.50;;
67757;SDS011;54562;47.620;18.786;2023-02-18T04:06:24;3.90;;;1.80;;
67757;SDS011;54562;47.620;18.786;2023-02-18T04:09:35;3.90;;;1.60;;
67757;SDS011;54562;47.620;18.786;2023-02-18T04:12:45;5.30;;;1.60;;
67757;SDS011;54562;47.620;18.786;2023-02-18T04:15:53;4.30;;;1.80;;
67757;SDS011;54562;47.620;18.786;2023-02-18T04:19:00;3.70;;;1.60;;
67757;SDS011;54562;47.620;18.786;2023-02-18T04:22:08;3.90;;;1.60;;
67757;SDS011;54562;47.620;18.786;2023-02-18T04:25:17;4.30;;;1.80;;
67757;SDS011;54562;47.620;18.786;2023-02-18T04:28:25;4.20;;;1.60;;
67757;SDS011;54562;47.620;18.786;2023-02-18T04:31:33;4.10;;;1.90;;
67757;SDS011;54562;47.620;18.786;2023-02-18T04:34:42;4.40;;;1.70;;
67757;SDS011;54562;47.620;18.786;2023-02-18T04:37:50;4.30;;;1.70;;
67757;SDS011;54562;47.620;18.786;2023-02-18T04:41:00;3.70;;;1.70;;
67757;SDS011;54562;47.620;18.786;2023-02-18T04:44:08;4.50;;;1.90;;
67757;SDS011;54562;47.620;18.786;2023-02-18T04:47:16;3.70;;;1.80;;
67757;SDS011;54562;47.620;18.786;2023-02-18T04:53:51;3.20;;;1.50;;
67757;SDS011;54562;47.620;18.786;2023-02-18T04:56:59;2.90;;;1.50;;
67757;SDS011;54562;47.620;18.786;2023-02-18T05:00:09;4.10;;;1.60;;
67757;SDS011;54562;47.620;18.786;2023-02-18T05:03:23;4.00;;;1.80;;
67757;SDS011;54562;47.620;18.786;2023-02-18T05:06:42;3.90;;;1.60;;
67757;SDS011;54562;47.620;18.786;2023-02-18T05:09:58;4.50;;;1.90;;
67757;SDS011;54562;47.620;18.786;2023-02-18T05:13:07;4.50;;;1.80;;
67757;SDS011;54562;47.620;18.786;2023-02-18T05:16:16;4.40;;;2.00;;
67757;SDS011;54562;47.620;18.786;2023-02-18T05:19:25;5.20;;;1.80;;
67757;SDS011;54562;47.620;18.786;2023-02-18T05:22:44;4.00;;;1.90;;
67757;SDS011;54562;47.620;18.786;2023-02-18T05:25:54;4.70;;;2.20;;
67757;SDS011;54562;47.620;18.786;2023-02-18T05:29:03;4.60;;;2.10;;
67757;SDS011;54562;47.620;18.786;2023-02-18T05:32:12;5.30;;;2.50;;
67757;SDS011;54562;47.620;18.786;2023-02-18T05:35:20;5.60;;;2.40;;
67757;SDS011;54562;47.620;18.786;2023-02-18T05:38:29;6.40;;;2.50;;
67757;SDS011;54562;47.620;18.786;2023-02-18T05:41:36;4.90;;;2.30;;
67757;SDS011;54562;47.620;18.786;2023-02-18T05:44:45;4.90;;;2.40;;
67757;SDS011;54562;47.620;18.786;2023-02-18T05:47:53;5.60;;;2.20;;
67757;SDS011;54562;47.620;18.786;2023-02-18T05:51:02;3.50;;;1.70;;
67757;SDS011;54562;47.620;18.786;2023-02-18T05:54:10;4.80;;;1.90;;
67757;SDS011;54562;47.620;18.786;2023-02-18T05:57:19;4.60;;;2.10;;
67757;SDS011;54562;47.620;18.786;2023-02-18T06:00:26;3.90;;;1.90;;
67757;SDS011;54562;47.620;18.786;2023-02-18T06:03:38;4.30;;;1.90;;
67757;SDS011;54562;47.620;18.786;2023-02-18T06:06:46;4.90;;;2.00;;
67757;SDS011;54562;47.620;18.786;2023-02-18T06:09:54;5.90;;;2.00;;
67757;SDS011;54562;47.620;18.786;2023-02-18T06:13:02;6.10;;;2.10;;
67757;SDS011;54562;47.620;18.786;2023-02-18T06:16:10;4.00;;;1.80;;
67757;SDS011;54562;47.620;18.786;2023-02-18T06:19:18;4.20;;;1.90;;
67757;SDS011;54562;47.620;18.786;2023-02-18T06:22:26;4.50;;;1.80;;
67757;SDS011;54562;47.620;18.786;2023-02-18T06:25:35;5.00;;;2.00;;
67757;SDS011;54562;47.620;18.786;2023-02-18T06:28:43;4.60;;;1.90;;
67757;SDS011;54562;47.620;18.786;2023-02-18T06:31:51;5.20;;;1.80;;
67757;SDS011;54562;47.620;18.786;2023-02-18T06:34:59;3.70;;;1.90;;
67757;SDS011;54562;47.620;18.786;2023-02-18T06:38:07;5.50;;;2.00;;
67757;SDS011;54562;47.620;18.786;2023-02-18T06:41:15;3.90;;;1.80;;
67757;SDS011;54562;47.620;18.786;2023-02-18T06:44:23;3.70;;;1.70;;
67757;SDS011;54562;47.620;18.786;2023-02-18T06:47:31;4.30;;;1.70;;
67757;SDS011;54562;47.620;18.786;2023-02-18T06:50:41;3.40;;;1.80;;
67757;SDS011;54562;47.620;18.786;2023-02-18T06:56:56;4.20;;;1.90;;
67757;SDS011;54562;47.620;18.786;2023-02-18T07:00:05;4.80;;;1.90;;
67757;SDS011;54562;47.620;18.786;2023-02-18T07:03:14;4.40;;;2.00;;
67757;SDS011;54562;47.620;18.786;2023-02-18T07:06:22;4.80;;;1.90;;
67757;SDS011;54562;47.620;18.786;2023-02-18T07:09:30;4.00;;;1.80;;
67757;SDS011;54562;47.620;18.786;2023-02-18T07:12:38;4.60;;;1.90;;
67757;SDS011;54562;47.620;18.786;2023-02-18T07:15:46;5.00;;;2.30;;
67757;SDS011;54562;47.620;18.786;2023-02-18T07:18:54;4.20;;;1.90;;
67757;SDS011;54562;47.620;18.786;2023-02-18T07:22:03;4.20;;;2.00;;
67757;SDS011;54562;47.620;18.786;2023-02-18T07:25:12;4.10;;;1.90;;
67757;SDS011;54562;47.620;18.786;2023-02-18T07:28:20;4.10;;;1.80;;
67757;SDS011;54562;47.620;18.786;2023-02-18T07:31:28;3.90;;;1.70;;
67757;SDS011;54562;47.620;18.786;2023-02-18T07:34:36;4.70;;;2.00;;
67757;SDS011;54562;47.620;18.786;2023-02-18T07:37:46;4.00;;;1.70;;
67757;SDS011;54562;47.620;18.786;2023-02-18T07:40:56;5.00;;;2.00;;
67757;SDS011;54562;47.620;18.786;2023-02-18T07:44:04;4.10;;;2.00;;
67757;SDS011;54562;47.620;18.786;2023-02-18T07:47:15;3.00;;;1.60;;
67757;SDS011;54562;47.620;18.786;2023-02-18T07:50:23;4.30;;;1.80;;
67757;SDS011;54562;47.620;18.786;2023-02-18T07:53:32;4.30;;;2.10;;
67757;SDS011;54562;47.620;18.786;2023-02-18T07:56:40;6.40;;;2.40;;
67757;SDS011;54562;47.620;18.786;2023-02-18T07:59:48;3.70;;;1.70;;
67757;SDS011;54562;47.620;18.786;2023-02-18T08:02:56;4.30;;;1.90;;
67757;SDS011;54562;47.620;18.786;2023-02-18T08:06:07;5.50;;;1.90;;
67757;SDS011;54562;47.620;18.786;2023-02-18T08:09:24;7.00;;;1.80;;
67757;SDS011;54562;47.620;18.786;2023-02-18T08:12:32;5.00;;;2.00;;
67757;SDS011;54562;47.620;18.786;2023-02-18T08:15:40;3.40;;;1.50;;
67757;SDS011;54562;47.620;18.786;2023-02-18T08:18:51;3.50;;;1.60;;
67757;SDS011;54562;47.620;18.786;2023-02-18T08:22:02;4.20;;;1.60;;
67757;SDS011;54562;47.620;18.786;2023-02-18T08:25:11;3.80;;;1.60;;
67757;SDS011;54562;47.620;18.786;2023-02-18T08:28:33;5.10;;;1.60;;
67757;SDS011;54562;47.620;18.786;2023-02-18T08:31:42;4.30;;;1.70;;
67757;SDS011;54562;47.620;18.786;2023-02-18T08:34:51;3.70;;;1.50;;
67757;SDS011;54562;47.620;18.786;2023-02-18T08:37:59;3.90;;;1.60;;
67757;SDS011;54562;47.620;18.786;2023-02-18T08:41:08;3.60;;;1.50;;
67757;SDS011;54562;47.620;18.786;2023-02-18T08:44:18;3.70;;;1.70;;
67757;SDS011;54562;47.620;18.786;2023-02-18T08:47:26;5.30;;;1.90;;
67757;SDS011;54562;47.620;18.786;2023-02-18T08:50:54;4.70;;;2.00;;
67757;SDS011;54562;47.620;18.786;2023-02-18T08:54:02;3.70;;;1.80;;
67757;SDS011;54562;47.620;18.786;2023-02-18T08:57:15;4.00;;;1.70;;
67757;SDS011;54562;47.620;18.786;2023-02-18T09:00:24;4.20;;;1.90;;
67757;SDS011;54562;47.620;18.786;2023-02-18T09:03:32;3.90;;;1.70;;
67757;SDS011;54562;47.620;18.786;2023-02-18T09:06:40;4.00;;;1.60;;
67757;SDS011;54562;47.620;18.786;2023-02-18T09:12:57;4.10;;;1.70;;
67757;SDS011;54562;47.620;18.786;2023-02-18T09:16:09;3.90;;;1.70;;
67757;SDS011;54562;47.620;18.786;2023-02-18T09:19:18;5.30;;;1.80;;
67757;SDS011;54562;47.620;18.786;2023-02-18T09:22:27;3.90;;;1.60;;
67757;SDS011;54562;47.620;18.786;2023-02-18T09:25:36;3.40;;;1.60;;
67757;SDS011;54562;47.620;18.786;2023-02-18T09:28:46;6.10;;;2.20;;
67757;SDS011;54562;47.620;18.786;2023-02-18T09:32:00;4.70;;;1.90;;
67757;SDS011;54562;47.620;18.786;2023-02-18T09:35:10;3.80;;;1.70;;
67757;SDS011;54562;47.620;18.786;2023-02-18T09:38:18;3.30;;;1.60;;
67757;SDS011;54562;47.620;18.786;2023-02-18T09:41:31;4.30;;;1.80;;
67757;SDS011;54562;47.620;18.786;2023-02-18T09:44:45;3.90;;;1.60;;
67757;SDS011;54562;47.620;18.786;2023-02-18T09:47:57;5.10;;;1.60;;
67757;SDS011;54562;47.620;18.786;2023-02-18T09:51:08;5.80;;;2.10;;
67757;SDS011;54562;47.620;18.786;2023-02-18T09:54:20;2.50;;;1.40;;
67757;SDS011;54562;47.620;18.786;2023-02-18T09:57:33;4.20;;;1.30;;
67757;SDS011;54562;47.620;18.786;2023-02-18T10:00:50;2.00;;;1.30;;
67757;SDS011;54562;47.620;18.786;2023-02-18T10:04:06;3.10;;;1.40;;
67757;SDS011;54562;47.620;18.786;2023-02-18T10:07:22;2.90;;;1.50;;
67757;SDS011;54562;47.620;18.786;2023-02-18T10:10:43;2.80;;;1.80;;
67757;SDS011;54562;47.620;18.786;2023-02-18T10:13:53;4.00;;;1.60;;
67757;SDS011;54562;47.620;18.786;2023-02-18T10:20:14;3.80;;;1.60;;
67757;SDS011;54562;47.620;18.786;2023-02-18T10:23:25;3.20;;;1.50;;
67757;SDS011;54562;47.620;18.786;2023-02-18T10:26:38;4.10;;;1.50;;
67757;SDS011;54562;47.620;18.786;2023-02-18T10:29:46;3.40;;;1.40;;
67757;SDS011;54562;47.620;18.786;2023-02-18T10:36:34;3.70;;;1.60;;
67757;SDS011;54562;47.620;18.786;2023-02-18T10:39:55;2.70;;;1.40;;
67757;SDS011;54562;47.620;18.786;2023-02-18T10:43:19;4.60;;;1.90;;
67757;SDS011;54562;47.620;18.786;2023-02-18T10:46:39;5.00;;;1.70;;
67757;SDS011;54562;47.620;18.786;2023-02-18T10:50:00;4.80;;;2.20;;
67757;SDS011;54562;47.620;18.786;2023-02-18T10:53:17;4.40;;;1.70;;
67757;SDS011;54562;47.620;18.786;2023-02-18T10:56:39;3.70;;;1.60;;
67757;SDS011;54562;47.620;18.786;2023-02-18T10:59:58;5.00;;;1.90;;
67757;SDS011;54562;47.620;18.786;2023-02-18T11:03:17;4.90;;;2.10;;
67757;SDS011;54562;47.620;18.786;2023-02-18T11:06:31;5.70;;;1.90;;
67757;SDS011;54562;47.620;18.786;2023-02-18T11:09:49;5.00;;;1.90;;
67757;SDS011;54562;47.620;18.786;2023-02-18T11:13:01;6.80;;;2.40;;
67757;SDS011;54562;47.620;18.786;2023-02-18T11:16:13;5.10;;;2.40;;
67757;SDS011;54562;47.620;18.786;2023-02-18T11:19:38;5.30;;;2.20;;
67757;SDS011;54562;47.620;18.786;2023-02-18T11:22:47;4.70;;;2.20;;
67757;SDS011;54562;47.620;18.786;2023-02-18T11:26:02;7.20;;;2.40;;
67757;SDS011;54562;47.620;18.786;2023-02-18T11:29:18;5.10;;;2.10;;
67757;SDS011;54562;47.620;18.786;2023-02-18T11:32:29;6.40;;;2.60;;
67757;SDS011;54562;47.620;18.786;2023-02-18T11:35:41;5.20;;;2.30;;
67757;SDS011;54562;47.620;18.786;2023-02-18T11:38:58;5.60;;;2.70;;
67757;SDS011;54562;47.620;18.786;2023-02-18T11:42:14;5.40;;;2.40;;
67757;SDS011;54562;47.620;18.786;2023-02-18T11:45:31;5.30;;;2.50;;
67757;SDS011;54562;47.620;18.786;2023-02-18T11:48:41;4.20;;;2.10;;
67757;SDS011;54562;47.620;18.786;2023-02-18T11:51:51;5.60;;;2.20;;
67757;SDS011;54562;47.620;18.786;2023-02-18T11:55:05;4.40;;;2.00;;
67757;SDS011;54562;47.620;18.786;2023-02-18T11:58:20;4.70;;;2.20;;
67757;SDS011;54562;47.620;18.786;2023-02-18T12:01:41;4.30;;;1.90;;
67757;SDS011;54562;47.620;18.786;2023-02-18T12:04:59;4.80;;;2.20;;
67757;SDS011;54562;47.620;18.786;2023-02-18T12:08:16;3.80;;;1.70;;
67757;SDS011;54562;47.620;18.786;2023-02-18T12:11:32;3.50;;;1.60;;
67757;SDS011;54562;47.620;18.786;2023-02-18T12:14:46;3.20;;;1.50;;
67757;SDS011;54562;47.620;18.786;2023-02-18T12:18:20;6.40;;;1.50;;
67757;SDS011;54562;47.620;18.786;2023-02-18T12:21:55;2.80;;;1.40;;
67757;SDS011;54562;47.620;18.786;2023-02-18T12:25:27;3.80;;;1.70;;
67757;SDS011;54562;47.620;18.786;2023-02-18T12:28:51;5.40;;;1.50;;
67757;SDS011;54562;47.620;18.786;2023-02-18T12:32:29;3.90;;;1.50;;
67757;SDS011;54562;47.620;18.786;2023-02-18T12:35:59;2.90;;;1.50;;
67757;SDS011;54562;47.620;18.786;2023-02-18T12:39:27;5.70;;;1.60;;
67757;SDS011;54562;47.620;18.786;2023-02-18T12:46:11;4.30;;;1.80;;
67757;SDS011;54562;47.620;18.786;2023-02-18T12:49:53;3.80;;;1.70;;
67757;SDS011;54562;47.620;18.786;2023-02-18T12:53:51;3.90;;;1.60;;
67757;SDS011;54562;47.620;18.786;2023-02-18T12:57:37;4.50;;;1.80;;
67757;SDS011;54562;47.620;18.786;2023-02-18T13:04:32;2.80;;;1.30;;
67757;SDS011;54562;47.620;18.786;2023-02-18T13:11:35;3.90;;;1.40;;
67757;SDS011;54562;47.620;18.786;2023-02-18T13:14:57;2.00;;;1.00;;
67757;SDS011;54562;47.620;18.786;2023-02-18T13:18:13;2.00;;;1.20;;
67757;SDS011;54562;47.620;18.786;2023-02-18T13:21:26;3.20;;;1.10;;
67757;SDS011;54562;47.620;18.786;2023-02-18T13:24:38;1.60;;;1.00;;
67757;SDS011;54562;47.620;18.786;2023-02-18T13:27:57;1.30;;;1.00;;
67757;SDS011;54562;47.620;18.786;2023-02-18T13:31:31;2.30;;;1.20;;
67757;SDS011;54562;47.620;18.786;2023-02-18T13:34:49;2.10;;;1.20;;
67757;SDS011;54562;47.620;18.786;2023-02-18T13:38:15;2.10;;;1.10;;
67757;SDS011;54562;47.620;18.786;2023-02-18T13:41:40;2.50;;;1.20;;
67757;SDS011;54562;47.620;18.786;2023-02-18T13:48:44;1.10;;;1.00;;
67757;SDS011;54562;47.620;18.786;2023-02-18T13:51:58;2.10;;;1.10;;
67757;SDS011;54562;47.620;18.786;2023-02-18T13:55:18;1.70;;;1.20;;
67757;SDS011;54562;47.620;18.786;2023-02-18T13:58:33;2.30;;;1.20;;
67757;SDS011;54562;47.620;18.786;2023-02-18T14:01:48;1.80;;;1.10;;
67757;SDS011;54562;47.620;18.786;2023-02-18T14:04:57;4.20;;;1.80;;
67757;SDS011;54562;47.620;18.786;2023-02-18T14:08:32;4.90;;;1.80;;
67757;SDS011;54562;47.620;18.786;2023-02-18T14:11:48;4.20;;;1.50;;
67757;SDS011;54562;47.620;18.786;2023-02-18T14:15:02;3.10;;;1.40;;
67757;SDS011;54562;47.620;18.786;2023-02-18T14:18:59;2.20;;;1.20;;
67757;SDS011;54562;47.620;18.786;2023-02-18T14:22:31;2.20;;;1.20;;
67757;SDS011;54562;47.620;18.786;2023-02-18T14:29:31;6.70;;;1.80;;
67757;SDS011;54562;47.620;18.786;2023-02-18T14:35:54;14.70;;;2.10;;
67757;SDS011;54562;47.620;18.786;2023-02-18T14:39:27;7.00;;;1.80;;
67757;SDS011;54562;47.620;18.786;2023-02-18T14:42:48;4.30;;;1.80;;
67757;SDS011;54562;47.620;18.786;2023-02-18T14:46:11;4.40;;;2.10;;
67757;SDS011;54562;47.620;18.786;2023-02-18T14:49:40;4.60;;;2.20;;
67757;SDS011;54562;47.620;18.786;2023-02-18T14:52:55;4.10;;;1.70;;
67757;SDS011;54562;47.620;18.786;2023-02-18T14:56:11;4.60;;;1.60;;
67757;SDS011;54562;47.620;18.786;2023-02-18T14:59:47;3.00;;;1.50;;
67757;SDS011;54562;47.620;18.786;2023-02-18T15:03:09;2.60;;;1.30;;
67757;SDS011;54562;47.620;18.786;2023-02-18T15:06:29;6.70;;;1.70;;
67757;SDS011;54562;47.620;18.786;2023-02-18T15:09:51;3.20;;;1.60;;
67757;SDS011;54562;47.620;18.786;2023-02-18T15:13:02;7.00;;;1.50;;
67757;SDS011;54562;47.620;18.786;2023-02-18T15:16:17;4.00;;;1.60;;
67757;SDS011;54562;47.620;18.786;2023-02-18T15:19:34;5.50;;;1.70;;
67757;SDS011;54562;47.620;18.786;2023-02-18T15:22:56;4.00;;;1.90;;
67757;SDS011;54562;47.620;18.786;2023-02-18T15:26:10;5.90;;;1.90;;
67757;SDS011;54562;47.620;18.786;2023-02-18T15:29:23;4.10;;;1.70;;
67757;SDS011;54562;47.620;18.786;2023-02-18T15:32:43;11.80;;;2.90;;
67757;SDS011;54562;47.620;18.786;2023-02-18T15:36:02;5.70;;;2.30;;
67757;SDS011;54562;47.620;18.786;2023-02-18T15:39:15;4.70;;;1.90;;
67757;SDS011;54562;47.620;18.786;2023-02-18T15:42:27;11.50;;;2.20;;
67757;SDS011;54562;47.620;18.786;2023-02-18T15:48:58;10.30;;;2.90;;
67757;SDS011;54562;47.620;18.786;2023-02-18T15:52:12;9.10;;;3.80;;
67757;SDS011;54562;47.620;18.786;2023-02-18T15:55:26;8.10;;;3.60;;
67757;SDS011;54562;47.620;18.786;2023-02-18T15:58:47;10.30;;;3.40;;
67757;SDS011;54562;47.620;18.786;2023-02-18T16:02:01;11.10;;;4.40;;
67757;SDS011;54562;47.620;18.786;2023-02-18T16:05:17;12.00;;;4.40;;
67757;SDS011;54562;47.620;18.786;2023-02-18T16:08:30;12.00;;;5.40;;
67757;SDS011;54562;47.620;18.786;2023-02-18T16:14:52;11.90;;;6.00;;
67757;SDS011;54562;47.620;18.786;2023-02-18T16:18:05;14.70;;;7.00;;
67757;SDS011;54562;47.620;18.786;2023-02-18T16:21:32;17.40;;;8.30;;
67757;SDS011;54562;47.620;18.786;2023-02-18T16:24:44;20.30;;;10.80;;
67757;SDS011;54562;47.620;18.786;2023-02-18T16:28:06;24.90;;;14.70;;
67757;SDS011;54562;47.620;18.786;2023-02-18T16:31:20;28.20;;;15.70;;
67757;SDS011;54562;47.620;18.786;2023-02-18T16:34:29;35.80;;;18.80;;
67757;SDS011;54562;47.620;18.786;2023-02-18T16:37:37;36.90;;;19.80;;
67757;SDS011;54562;47.620;18.786;2023-02-18T16:40:46;36.50;;;19.70;;
67757;SDS011;54562;47.620;18.786;2023-02-18T16:43:56;36.70;;;20.10;;
67757;SDS011;54562;47.620;18.786;2023-02-18T16:47:04;37.40;;;20.70;;
67757;SDS011;54562;47.620;18.786;2023-02-18T16:50:18;45.80;;;20.80;;
67757;SDS011;54562;47.620;18.786;2023-02-18T16:53:27;39.80;;;22.20;;
67757;SDS011;54562;47.620;18.786;2023-02-18T16:56:36;41.60;;;21.50;;
67757;SDS011;54562;47.620;18.786;2023-02-18T16:59:44;39.80;;;20.40;;
67757;SDS011;54562;47.620;18.786;2023-02-18T17:02:55;37.40;;;21.10;;
67757;SDS011;54562;47.620;18.786;2023-02-18T17:06:11;41.40;;;22.00;;
67757;SDS011;54562;47.620;18.786;2023-02-18T17:09:24;43.50;;;23.50;;
67757;SDS011;54562;47.620;18.786;2023-02-18T17:12:40;44.70;;;22.90;;
67757;SDS011;54562;47.620;18.786;2023-02-18T17:15:56;47.80;;;23.30;;
67757;SDS011;54562;47.620;18.786;2023-02-18T17:19:15;48.00;;;23.00;;
67757;SDS011;54562;47.620;18.786;2023-02-18T17:22:25;45.80;;;23.20;;
67757;SDS011;54562;47.620;18.786;2023-02-18T17:25:35;45.00;;;24.90;;
67757;SDS011;54562;47.620;18.786;2023-02-18T17:28:45;44.70;;;24.00;;
67757;SDS011;54562;47.620;18.786;2023-02-18T17:31:55;43.10;;;23.20;;
67757;SDS011;54562;47.620;18.786;2023-02-18T17:35:03;44.70;;;23.00;;
67757;SDS011;54562;47.620;18.786;2023-02-18T17:38:16;42.40;;;22.10;;
67757;SDS011;54562;47.620;18.786;2023-02-18T17:41:25;40.30;;;22.10;;
67757;SDS011;54562;47.620;18.786;2023-02-18T17:44:33;45.80;;;23.80;;
67757;SDS011;54562;47.620;18.786;2023-02-18T17:47:41;47.90;;;24.60;;
67757;SDS011;54562;47.620;18.786;2023-02-18T17:50:50;45.50;;;23.60;;
67757;SDS011;54562;47.620;18.786;2023-02-18T17:53:59;46.20;;;24.40;;
67757;SDS011;54562;47.620;18.786;2023-02-18T17:57:08;47.60;;;23.60;;
67757;SDS011;54562;47.620;18.786;2023-02-18T18:00:19;51.90;;;26.10;;
67757;SDS011;54562;47.620;18.786;2023-02-18T18:03:29;53.80;;;27.30;;
67757;SDS011;54562;47.620;18.786;2023-02-18T18:06:37;57.80;;;26.30;;
67757;SDS011;54562;47.620;18.786;2023-02-18T18:09:46;48.00;;;24.50;;
67757;SDS011;54562;47.620;18.786;2023-02-18T18:12:55;40.60;;;21.20;;
67757;SDS011;54562;47.620;18.786;2023-02-18T18:16:05;36.50;;;19.30;;
67757;SDS011;54562;47.620;18.786;2023-02-18T18:19:15;38.60;;;17.10;;
67757;SDS011;54562;47.620;18.786;2023-02-18T18:22:23;30.60;;;15.90;;
67757;SDS011;54562;47.620;18.786;2023-02-18T18:25:35;32.90;;;15.60;;
67757;SDS011;54562;47.620;18.786;2023-02-18T18:28:45;31.90;;;16.70;;
67757;SDS011;54562;47.620;18.786;2023-02-18T18:31:53;29.90;;;15.20;;
67757;SDS011;54562;47.620;18.786;2023-02-18T18:35:01;34.00;;;17.70;;
67757;SDS011;54562;47.620;18.786;2023-02-18T18:38:15;32.00;;;17.10;;
67757;SDS011;54562;47.620;18.786;2023-02-18T18:41:25;31.90;;;16.70;;
67757;SDS011;54562;47.620;18.786;2023-02-18T18:44:34;32.30;;;16.90;;
67757;SDS011;54562;47.620;18.786;2023-02-18T18:47:42;32.00;;;16.20;;
67757;SDS011;54562;47.620;18.786;2023-02-18T18:50:52;33.30;;;16.90;;
67757;SDS011;54562;47.620;18.786;2023-02-18T18:54:00;35.10;;;16.80;;
67757;SDS011;54562;47.620;18.786;2023-02-18T18:57:08;32.20;;;17.50;;
67757;SDS011;54562;47.620;18.786;2023-02-18T19:00:18;35.30;;;17.30;;
67757;SDS011;54562;47.620;18.786;2023-02-18T19:03:29;36.20;;;17.80;;
67757;SDS011;54562;47.620;18.786;2023-02-18T19:06:39;35.50;;;18.80;;
67757;SDS011;54562;47.620;18.786;2023-02-18T19:09:47;35.10;;;18.00;;
67757;SDS011;54562;47.620;18.786;2023-02-18T19:13:01;37.00;;;18.50;;
67757;SDS011;54562;47.620;18.786;2023-02-18T19:16:17;35.30;;;18.10;;
67757;SDS011;54562;47.620;18.786;2023-02-18T19:19:28;34.70;;;18.10;;
67757;SDS011;54562;47.620;18.786;2023-02-18T19:22:36;40.80;;;20.80;;
67757;SDS011;54562;47.620;18.786;2023-02-18T19:25:45;37.10;;;19.50;;
67757;SDS011;54562;47.620;18.786;2023-02-18T19:28:54;37.40;;;19.80;;
67757;SDS011;54562;47.620;18.786;2023-02-18T19:32:03;33.70;;;17.30;;
67757;SDS011;54562;47.620;18.786;2023-02-18T19:35:12;36.70;;;18.90;;
67757;SDS011;54562;47.620;18.786;2023-02-18T19:38:20;38.20;;;18.00;;
67757;SDS011;54562;47.620;18.786;2023-02-18T19:41:29;35.10;;;18.00;;
67757;SDS011;54562;47.620;18.786;2023-02-18T19:44:37;33.40;;;16.50;;
67757;SDS011;54562;47.620;18.786;2023-02-18T19:47:45;32.10;;;16.10;;
67757;SDS011;54562;47.620;18.786;2023-02-18T19:50:58;35.30;;;16.60;;
67757;SDS011;54562;47.620;18.786;2023-02-18T19:54:08;31.50;;;16.30;;
67757;SDS011;54562;47.620;18.786;2023-02-18T19:57:16;31.00;;;15.70;;
67757;SDS011;54562;47.620;18.786;2023-02-18T20:00:24;33.70;;;16.80;;